This is the latest recevied weather packets stored in our database for station/object K5YNC. If no packets are shown the sender has not sent any weather packets the latest 1 day(s).
| Time | Temp. | Humidity | Pressure | Rain* | Wind** | Luminosity | Snow |
|---|---|---|---|---|---|---|---|
| 1778004596 | 28.89° C | 52% | 1006.2 hPa | 0 mm | 1.79 m/s, 165° | 336 W/m² | - |
| 1778004292 | 28.33° C | 54% | 1006.3 hPa | 0 mm | 2.68 m/s, 219° | 407 W/m² | - |
| 1778003989 | 28.33° C | 55% | 1006.1 hPa | 0 mm | 0.89 m/s, 222° | 373 W/m² | - |
| 1778003685 | 27.78° C | 54% | 1006.2 hPa | 0 mm | 1.79 m/s, 217° | 286 W/m² | - |
| 1778003382 | 28.33° C | 55% | 1006.1 hPa | 0 mm | 1.34 m/s, 203° | 236 W/m² | - |
| 1778003079 | 28.89° C | 53% | 1006.1 hPa | 0 mm | 3.58 m/s, 185° | 349 W/m² | - |
| 1778002775 | 28.89° C | 55% | 1006.2 hPa | 0 mm | 1.79 m/s, 233° | 569 W/m² | - |
| 1778002472 | 28.33° C | 56% | 1006 hPa | 0 mm | 2.24 m/s, 209° | 599 W/m² | - |
| 1778002169 | 28.33° C | 55% | 1005.9 hPa | 0 mm | 3.58 m/s, 286° | 396 W/m² | - |
| 1778001867 | 28.89° C | 55% | 1005.9 hPa | 0 mm | 2.24 m/s, 217° | 560 W/m² | - |
| 1778001566 | 29.44° C | 56% | 1005.8 hPa | 0 mm | 0.89 m/s, 104° | 430 W/m² | - |
| 1778001264 | 28.89° C | 58% | 1006 hPa | 0 mm | 0.89 m/s, 200° | 861 W/m² | - |
| 1778000960 | 27.78° C | 60% | 1005.9 hPa | 0 mm | 0.89 m/s, 345° | 560 W/m² | - |
| 1778000657 | 27.78° C | 60% | 1006 hPa | 0 mm | 1.34 m/s, 176° | 384 W/m² | - |
| 1778000352 | 27.78° C | 57% | 1005.6 hPa | 0 mm | 1.79 m/s, 195° | 455 W/m² | - |
| 1778000048 | 27.22° C | 60% | 1005.5 hPa | 0 mm | 1.34 m/s, 277° | 437 W/m² | - |
| 1777999743 | 27.22° C | 63% | 1005.8 hPa | 0 mm | 2.68 m/s, 188° | 543 W/m² | - |
| 1777999440 | 26.67° C | 65% | 1005.9 hPa | 0 mm | 4.02 m/s, 234° | 534 W/m² | - |
| 1777999139 | 26.67° C | 68% | 1006 hPa | 0 mm | 1.34 m/s, 200° | 383 W/m² | - |
| 1777998837 | 26.11° C | 68% | 1005.7 hPa | 0 mm | 1.34 m/s, 233° | 389 W/m² | - |
| 1777998535 | 26.11° C | 67% | 1005.5 hPa | 0 mm | 1.79 m/s, 227° | 415 W/m² | - |
| 1777998231 | 25.56° C | 69% | 1005.6 hPa | 0 mm | 1.34 m/s, 269° | 466 W/m² | - |
| 1777997928 | 25.56° C | 70% | 1005.4 hPa | 0 mm | 0.89 m/s, 172° | 297 W/m² | - |
| 1777997625 | 25.56° C | 70% | 1005.4 hPa | 0 mm | 1.34 m/s, 237° | 296 W/m² | - |
| 1777997322 | 25.56° C | 69% | 1005.3 hPa | 0 mm | 4.47 m/s, 226° | 278 W/m² | - |
* Rain latest hour (hover to see other rain measurements)
** Current wind speed in m/s (hover to see current wind gust speed)